Time;durP1;ratioP1;P1;durP2;ratioP2;P2;SDS_P1;SDS_P2;PMS_P1;PMS_P2;Temp;Humidity;BMP_temperature;BMP_pressure;BME280_temperature;BME280_humidity;BME280_pressure;Samples;Min_cycle;Max_cycle;Signal;HPM_P1;HPM_P2
2022/07/19 00:02:13;;;;;;;10.98;4.68;;;18.90;99.90;;;;;;6131410;23;20022;-94
2022/07/19 00:04:39;;;;;;;9.70;4.43;;;18.80;99.90;;;;;;6131227;23;20022;-94
2022/07/19 00:07:04;;;;;;;10.13;4.65;;;18.70;99.90;;;;;;6130053;23;20052;-93
2022/07/19 00:09:36;;;;;;;10.07;4.40;;;19.00;99.90;;;;;;6131024;23;20018;-94
2022/07/19 00:12:13;;;;;;;12.05;4.60;;;18.70;99.90;;;;;;6130931;23;20017;-93
2022/07/19 00:14:51;;;;;;;9.90;4.47;;;18.70;99.90;;;;;;6128319;23;20100;-92
2022/07/19 00:17:25;;;;;;;10.82;4.80;;;18.60;99.90;;;;;;6130412;23;20028;-94
2022/07/19 00:19:57;;;;;;;9.32;4.25;;;18.60;99.90;;;;;;6129281;23;20024;-94
2022/07/19 00:22:23;;;;;;;11.73;4.63;;;18.60;99.90;;;;;;6129721;23;20044;-94
2022/07/19 00:25:00;;;;;;;10.57;4.65;;;18.80;99.90;;;;;;6156414;23;20494;-94
2022/07/19 00:27:40;;;;;;;10.07;4.35;;;18.60;99.90;;;;;;6130445;23;20025;-94
2022/07/19 00:30:09;;;;;;;11.30;4.55;;;18.60;99.90;;;;;;6130312;23;20014;-94
2022/07/19 00:32:35;;;;;;;12.05;4.65;;;18.50;99.90;;;;;;6157253;23;20096;-94
2022/07/19 00:35:01;;;;;;;12.05;4.90;;;18.50;99.90;;;;;;6129580;23;20044;-94
2022/07/19 00:37:27;;;;;;;12.68;4.53;;;18.50;99.90;;;;;;6130800;23;20022;-95
2022/07/19 00:39:52;;;;;;;10.93;4.63;;;18.50;99.90;;;;;;6130424;23;20050;-94
2022/07/19 00:42:18;;;;;;;11.50;4.63;;;18.40;99.90;;;;;;6130023;23;20442;-94
2022/07/19 00:44:44;;;;;;;10.32;4.88;;;18.80;99.90;;;;;;6156399;23;20014;-94
2022/07/19 00:47:10;;;;;;;11.60;4.80;;;18.70;99.90;;;;;;6154614;23;20079;-94
2022/07/19 00:49:36;;;;;;;10.23;4.95;;;18.40;99.90;;;;;;6129441;23;20042;-93
2022/07/19 00:52:03;;;;;;;11.00;4.65;;;18.60;99.90;;;;;;6156483;23;20021;-93
2022/07/19 00:54:35;;;;;;;9.70;4.63;;;18.30;99.90;;;;;;6130428;23;20025;-94
2022/07/19 00:57:01;;;;;;;11.30;4.60;;;18.50;99.90;;;;;;6155426;23;20018;-93
2022/07/19 00:59:27;;;;;;;13.90;5.07;;;18.40;99.90;;;;;;6145321;23;20046;-93
2022/07/19 01:01:54;;;;;;;11.27;4.93;;;18.70;99.90;;;;;;6157838;23;20008;-93
2022/07/19 01:04:23;;;;;;;10.07;4.65;;;18.20;99.90;;;;;;6158681;23;20024;-93
2022/07/19 01:06:49;;;;;;;11.13;4.70;;;18.20;99.90;;;;;;6150260;23;20025;-94
2022/07/19 01:09:14;;;;;;;11.55;4.75;;;18.10;99.90;;;;;;6131372;23;20406;-94
2022/07/19 01:11:40;;;;;;;11.52;4.65;;;18.10;99.90;;;;;;6130613;23;20454;-95
2022/07/19 01:14:06;;;;;;;11.02;4.65;;;18.10;99.90;;;;;;6130051;23;20013;-94
2022/07/19 01:16:31;;;;;;;10.45;4.55;;;18.00;99.90;;;;;;6156447;23;20017;-95
2022/07/19 01:18:57;;;;;;;12.10;4.70;;;18.00;99.90;;;;;;6155547;23;20025;-94
2022/07/19 01:21:26;;;;;;;10.25;4.57;;;18.00;99.90;;;;;;6130717;23;20025;-95
2022/07/19 01:23:52;;;;;;;11.02;4.90;;;18.10;99.90;;;;;;6130352;23;20010;-93
2022/07/19 01:26:18;;;;;;;12.98;4.65;;;18.20;99.90;;;;;;6137680;23;20339;-94
2022/07/19 01:28:45;;;;;;;11.13;4.75;;;17.90;99.90;;;;;;6138856;23;20013;-94
2022/07/19 01:31:10;;;;;;;10.20;4.50;;;18.00;99.90;;;;;;6151958;23;20056;-94
2022/07/19 01:33:41;;;;;;;13.23;4.82;;;17.90;99.90;;;;;;6148514;23;20013;-95
2022/07/19 01:36:08;;;;;;;12.93;5.18;;;17.90;99.90;;;;;;6144391;23;20076;-94
2022/07/19 01:38:34;;;;;;;10.20;4.93;;;17.80;99.90;;;;;;6138564;23;20021;-94
2022/07/19 01:40:59;;;;;;;11.02;5.10;;;17.80;99.90;;;;;;6130361;23;20026;-94
2022/07/19 01:43:25;;;;;;;13.30;4.70;;;17.70;99.90;;;;;;6130109;23;20013;-94
2022/07/19 01:45:53;;;;;;;11.10;4.50;;;17.70;99.90;;;;;;6128979;23;20021;-94
2022/07/19 01:48:19;;;;;;;10.23;4.47;;;17.70;99.90;;;;;;6129774;23;20013;-93
2022/07/19 01:50:45;;;;;;;11.10;4.90;;;17.70;99.90;;;;;;6105535;23;20029;-93
2022/07/19 01:53:11;;;;;;;10.48;4.70;;;17.70;99.90;;;;;;6156256;23;20013;-94
2022/07/19 01:55:36;;;;;;;11.48;4.65;;;17.60;99.90;;;;;;6156113;23;20155;-95
2022/07/19 01:58:02;;;;;;;10.93;4.88;;;17.60;99.90;;;;;;6129707;23;20041;-94
2022/07/19 02:00:27;;;;;;;9.38;4.72;;;17.60;99.90;;;;;;6129705;23;20739;-95
2022/07/19 02:02:53;;;;;;;10.88;5.00;;;17.50;99.90;;;;;;6128822;23;20350;-94
2022/07/19 02:05:19;;;;;;;10.52;4.70;;;17.50;99.90;;;;;;6156379;23;20021;-94
2022/07/19 02:07:44;;;;;;;11.35;5.32;;;17.50;99.90;;;;;;6155806;23;20079;-95
2022/07/19 02:10:10;;;;;;;10.80;5.00;;;17.50;99.90;;;;;;6130155;23;20512;-95
2022/07/19 02:12:36;;;;;;;10.90;4.97;;;17.50;99.90;;;;;;6156185;23;20017;-95
2022/07/19 02:15:02;;;;;;;11.40;5.10;;;17.70;99.90;;;;;;6130486;23;20124;-95
2022/07/19 02:17:28;;;;;;;10.52;4.72;;;17.40;99.90;;;;;;6109488;23;20020;-95
2022/07/19 02:19:54;;;;;;;11.90;5.40;;;17.30;99.90;;;;;;6134457;23;20013;-94
2022/07/19 02:22:19;;;;;;;11.35;5.18;;;17.40;99.90;;;;;;6130715;23;20450;-94
2022/07/19 02:24:45;;;;;;;11.98;5.40;;;17.30;99.90;;;;;;6156323;23;20017;-95
2022/07/19 02:27:11;;;;;;;10.60;4.85;;;17.30;99.90;;;;;;6129679;23;20104;-93
2022/07/19 02:29:37;;;;;;;11.65;5.40;;;17.20;99.90;;;;;;6129752;23;20476;-93
2022/07/19 02:32:03;;;;;;;12.60;5.63;;;17.20;99.90;;;;;;6129432;23;20076;-94
2022/07/19 02:34:28;;;;;;;10.70;5.50;;;17.20;99.90;;;;;;6129455;23;20018;-94
2022/07/19 02:36:54;;;;;;;11.80;5.55;;;17.40;99.90;;;;;;6129866;23;20027;-95
2022/07/19 02:39:20;;;;;;;11.40;5.78;;;17.10;99.90;;;;;;6130154;23;20024;-94
2022/07/19 02:41:45;;;;;;;12.82;6.30;;;17.40;99.90;;;;;;6156042;23;20018;-95
2022/07/19 02:44:11;;;;;;;10.98;5.47;;;17.20;99.90;;;;;;6156382;23;20009;-95
2022/07/19 02:46:39;;;;;;;12.00;5.20;;;17.00;99.90;;;;;;6129964;23;20145;-94
2022/07/19 02:49:04;;;;;;;11.00;5.70;;;17.00;99.90;;;;;;6129416;23;20020;-94
2022/07/19 02:51:30;;;;;;;12.32;6.05;;;17.00;99.90;;;;;;6156086;23;20053;-94
2022/07/19 02:53:56;;;;;;;12.80;5.95;;;16.90;99.90;;;;;;6130180;23;20045;-94
2022/07/19 02:56:21;;;;;;;13.02;5.60;;;17.40;99.90;;;;;;6155527;23;20017;-95
2022/07/19 02:58:47;;;;;;;11.90;5.40;;;17.10;99.90;;;;;;6156229;23;20017;-96
2022/07/19 03:01:12;;;;;;;11.15;5.40;;;16.80;99.90;;;;;;6132302;23;20043;-95
2022/07/19 03:03:44;;;;;;;11.63;5.65;;;17.20;99.90;;;;;;6162951;23;20045;-95
2022/07/19 03:06:11;;;;;;;11.75;5.55;;;16.80;99.90;;;;;;6183982;23;20017;-95
2022/07/19 03:08:37;;;;;;;12.27;5.63;;;16.70;99.90;;;;;;6142614;23;20059;-95
2022/07/19 03:11:03;;;;;;;12.75;6.03;;;16.70;99.90;;;;;;6130917;23;20128;-94
2022/07/19 03:13:31;;;;;;;10.63;5.50;;;16.70;99.90;;;;;;6131682;23;20452;-95
2022/07/19 03:15:56;;;;;;;13.98;5.65;;;16.60;99.90;;;;;;6131211;23;20077;-95
2022/07/19 03:18:22;;;;;;;14.10;6.00;;;16.90;99.90;;;;;;6157656;23;20038;-94
2022/07/19 03:20:47;;;;;;;12.20;5.55;;;16.60;99.90;;;;;;6131514;23;20024;-94
2022/07/19 03:23:13;;;;;;;12.02;5.60;;;16.80;99.90;;;;;;6171758;23;20021;-95
2022/07/19 03:25:39;;;;;;;11.85;5.80;;;16.50;99.90;;;;;;6165406;23;20021;-94
2022/07/19 03:28:04;;;;;;;10.98;5.30;;;16.50;99.90;;;;;;6157592;23;20017;-95
2022/07/19 03:30:31;;;;;;;11.63;5.43;;;16.50;99.90;;;;;;6131823;23;20096;-94
2022/07/19 03:32:57;;;;;;;11.38;5.03;;;16.80;99.90;;;;;;6148209;23;20041;-95
2022/07/19 03:35:23;;;;;;;11.55;5.68;;;16.80;99.90;;;;;;6139456;23;20036;-94
2022/07/19 03:37:48;;;;;;;11.77;5.35;;;16.50;99.90;;;;;;6163060;23;20382;-94
2022/07/19 03:40:14;;;;;;;11.68;5.90;;;16.40;99.90;;;;;;6133443;23;20068;-94
2022/07/19 03:42:40;;;;;;;13.55;5.53;;;16.40;99.90;;;;;;6131504;23;20021;-94
2022/07/19 03:45:05;;;;;;;12.88;5.60;;;16.40;99.90;;;;;;6156921;23;20326;-94
2022/07/19 03:47:31;;;;;;;11.75;5.40;;;16.40;99.90;;;;;;6157831;23;20010;-94
2022/07/19 03:49:57;;;;;;;11.88;5.47;;;16.40;99.90;;;;;;6157503;23;20022;-96
2022/07/19 03:52:23;;;;;;;12.60;5.60;;;16.40;99.90;;;;;;6157591;23;20358;-95
2022/07/19 03:54:49;;;;;;;10.75;5.20;;;16.40;99.90;;;;;;6156871;23;20489;-94
2022/07/19 03:57:15;;;;;;;11.93;5.75;;;16.40;99.90;;;;;;6162673;23;20107;-95
2022/07/19 03:59:40;;;;;;;14.20;5.93;;;16.60;99.90;;;;;;6177366;23;20024;-94
2022/07/19 04:02:06;;;;;;;12.55;5.90;;;16.40;99.90;;;;;;6158993;23;20021;-94
2022/07/19 04:04:31;;;;;;;12.02;5.93;;;16.40;99.90;;;;;;6185251;23;20030;-95
2022/07/19 04:06:57;;;;;;;12.85;5.45;;;16.40;99.90;;;;;;6131145;23;20096;-95
2022/07/19 04:09:23;;;;;;;10.80;5.30;;;16.40;99.90;;;;;;6131329;23;20017;-94
2022/07/19 04:11:49;;;;;;;10.73;5.32;;;16.40;99.90;;;;;;6130968;23;20041;-96
2022/07/19 04:14:14;;;;;;;12.80;5.75;;;16.40;99.90;;;;;;6131185;23;20327;-94
2022/07/19 04:16:40;;;;;;;12.80;6.00;;;16.50;99.90;;;;;;6157516;23;20014;-95
2022/07/19 04:19:06;;;;;;;12.20;5.78;;;16.50;99.90;;;;;;6157227;23;20013;-93
2022/07/19 04:21:31;;;;;;;12.02;5.60;;;16.50;99.90;;;;;;6156417;23;20088;-95
2022/07/19 04:23:57;;;;;;;10.85;5.47;;;16.60;99.90;;;;;;6157358;23;20013;-94
2022/07/19 04:26:23;;;;;;;11.65;5.93;;;16.60;99.90;;;;;;6131264;23;20445;-94
2022/07/19 04:28:48;;;;;;;11.10;5.53;;;16.60;99.90;;;;;;6130719;23;20045;-95
2022/07/19 04:31:14;;;;;;;13.48;5.53;;;17.00;99.90;;;;;;6131310;23;20148;-96
2022/07/19 04:33:40;;;;;;;12.25;5.93;;;16.70;99.90;;;;;;6131534;23;20049;-94
2022/07/19 04:36:06;;;;;;;13.20;5.53;;;16.80;99.90;;;;;;6134856;23;20478;-95
2022/07/19 04:38:31;;;;;;;11.45;5.43;;;16.80;99.90;;;;;;6146482;23;20005;-94
2022/07/19 04:40:57;;;;;;;12.55;5.88;;;16.90;99.90;;;;;;6153447;23;20028;-94
2022/07/19 04:43:23;;;;;;;12.57;6.00;;;16.90;99.90;;;;;;6139909;23;20069;-94
2022/07/19 04:45:48;;;;;;;11.18;5.47;;;16.90;99.90;;;;;;6131248;23;20025;-95
2022/07/19 04:48:14;;;;;;;13.18;6.13;;;17.00;99.90;;;;;;6158931;23;20017;-94
2022/07/19 04:50:40;;;;;;;12.95;5.68;;;17.30;99.90;;;;;;6133714;23;20454;-94
2022/07/19 04:53:07;;;;;;;11.65;5.45;;;17.10;99.90;;;;;;6158210;23;20017;-94
2022/07/19 04:55:33;;;;;;;10.88;5.80;;;17.10;99.90;;;;;;6161921;23;20077;-95
2022/07/19 04:57:59;;;;;;;13.57;6.50;;;17.20;99.90;;;;;;6138152;23;20025;-95
2022/07/19 05:00:25;;;;;;;11.55;5.88;;;17.30;99.90;;;;;;6131618;23;20473;-95
2022/07/19 05:02:53;;;;;;;11.75;6.25;;;17.40;99.90;;;;;;6132114;23;20092;-95
2022/07/19 05:05:19;;;;;;;12.25;6.45;;;17.50;99.90;;;;;;6132406;23;20096;-95
2022/07/19 05:07:44;;;;;;;12.00;6.43;;;18.00;99.90;;;;;;6157096;23;20045;-95
2022/07/19 05:10:11;;;;;;;13.23;6.40;;;17.70;99.90;;;;;;6156610;23;20013;-95
2022/07/19 05:12:37;;;;;;;12.82;6.60;;;17.90;99.90;;;;;;6130572;23;20025;-94
2022/07/19 05:15:04;;;;;;;14.40;7.00;;;17.90;99.90;;;;;;6156337;23;20064;-95
2022/07/19 05:17:29;;;;;;;12.40;6.35;;;17.90;99.90;;;;;;6130094;23;20100;-93
2022/07/19 05:19:55;;;;;;;16.10;6.97;;;18.10;99.90;;;;;;6137785;23;20014;-93
2022/07/19 05:22:22;;;;;;;12.85;6.57;;;18.10;99.90;;;;;;6131375;23;20028;-92
2022/07/19 05:24:48;;;;;;;14.45;7.22;;;18.20;99.90;;;;;;6129467;23;20013;-93
2022/07/19 05:27:14;;;;;;;11.48;6.95;;;18.80;99.90;;;;;;6160848;23;20017;-93
2022/07/19 05:29:39;;;;;;;12.30;6.70;;;18.40;99.90;;;;;;6142162;23;20068;-93
2022/07/19 05:32:05;;;;;;;13.93;6.68;;;18.40;99.90;;;;;;6130899;23;20024;-92
2022/07/19 05:34:31;;;;;;;12.70;6.57;;;18.50;99.90;;;;;;6130980;23;20021;-93
2022/07/19 05:36:56;;;;;;;14.88;7.13;;;19.10;99.90;;;;;;6130796;23;20398;-92
2022/07/19 05:39:22;;;;;;;12.27;6.57;;;18.70;99.90;;;;;;6155997;23;20088;-93
2022/07/19 05:41:47;;;;;;;12.70;6.85;;;18.80;99.90;;;;;;6162465;23;20021;-96
2022/07/19 05:44:13;;;;;;;13.48;6.47;;;18.80;99.90;;;;;;6157649;23;20010;-94
2022/07/19 05:46:40;;;;;;;14.85;7.13;;;18.90;99.90;;;;;;6130308;23;20056;-93
2022/07/19 05:49:08;;;;;;;12.32;6.30;;;19.40;99.90;;;;;;6139619;23;20028;-94
2022/07/19 05:51:34;;;;;;;11.70;6.25;;;19.00;99.90;;;;;;6155527;23;20013;-87
2022/07/19 05:54:00;;;;;;;12.90;7.05;;;19.20;99.90;;;;;;6128912;23;20049;-80
2022/07/19 05:56:29;;;;;;;13.30;6.57;;;19.50;99.90;;;;;;6129318;23;20021;-81
2022/07/19 05:58:55;;;;;;;12.48;6.60;;;19.40;99.90;;;;;;6154205;23;20048;-81
2022/07/19 06:01:23;;;;;;;13.32;6.22;;;19.60;99.90;;;;;;6129459;23;20024;-79
2022/07/19 06:03:58;;;;;;;15.00;6.60;;;19.60;99.90;;;;;;6129008;23;20097;-80
2022/07/19 06:06:26;;;;;;;14.60;6.90;;;19.70;99.90;;;;;;6128499;23;20018;-82
2022/07/19 06:08:51;;;;;;;13.13;6.13;;;19.90;99.90;;;;;;6128814;23;20024;-80
2022/07/19 06:11:18;;;;;;;12.52;6.18;;;20.00;99.90;;;;;;6129299;23;20017;-80
2022/07/19 06:13:44;;;;;;;12.05;6.13;;;20.10;99.90;;;;;;6127744;23;20493;-81
2022/07/19 06:16:11;;;;;;;15.60;6.18;;;20.20;99.90;;;;;;6155647;23;20104;-81
2022/07/19 06:18:38;;;;;;;15.13;6.40;;;20.30;99.90;;;;;;6129640;23;20052;-81
2022/07/19 06:21:10;;;;;;;13.40;6.00;;;20.30;99.90;;;;;;6128080;23;20017;-80
2022/07/19 06:23:36;;;;;;;11.73;5.55;;;20.60;99.90;;;;;;6155632;23;20071;-81
2022/07/19 06:26:03;;;;;;;12.60;5.70;;;20.70;99.90;;;;;;6128512;23;20021;-80
2022/07/19 06:28:29;;;;;;;12.68;5.97;;;20.80;99.90;;;;;;6154322;23;20072;-80
2022/07/19 06:30:54;;;;;;;11.35;5.75;;;21.00;99.90;;;;;;6128969;23;20017;-79
2022/07/19 06:33:20;;;;;;;12.88;5.80;;;21.10;99.90;;;;;;6154873;23;20014;-81
2022/07/19 06:35:46;;;;;;;12.25;5.63;;;21.20;99.90;;;;;;6154801;23;20056;-79
2022/07/19 06:38:12;;;;;;;12.80;5.40;;;21.40;99.90;;;;;;6128961;23;20013;-82
2022/07/19 06:40:38;;;;;;;14.57;5.63;;;21.40;99.90;;;;;;6128047;23;20021;-80
2022/07/19 06:43:03;;;;;;;11.88;5.57;;;21.60;99.90;;;;;;6128355;23;20010;-81
2022/07/19 06:45:29;;;;;;;12.23;5.20;;;21.70;99.90;;;;;;6155323;23;20020;-79
2022/07/19 06:47:55;;;;;;;15.32;6.05;;;21.70;99.90;;;;;;6128024;23;20445;-79
2022/07/19 06:50:21;;;;;;;13.07;5.70;;;21.90;99.90;;;;;;6129262;23;20386;-79
2022/07/19 06:52:46;;;;;;;11.98;5.53;;;22.10;99.90;;;;;;6128681;23;20053;-79
2022/07/19 06:55:12;;;;;;;13.57;5.90;;;22.20;99.90;;;;;;6128244;23;20084;-80
2022/07/19 06:57:39;;;;;;;12.38;5.80;;;22.30;99.90;;;;;;6142770;23;20009;-78
2022/07/19 07:00:07;;;;;;;11.32;5.32;;;22.50;99.90;;;;;;6149215;23;20072;-80
2022/07/19 07:02:33;;;;;;;11.25;5.40;;;22.60;99.90;;;;;;6130721;23;20449;-80
2022/07/19 07:04:59;;;;;;;10.73;5.40;;;22.70;99.90;;;;;;6155545;23;20014;-83
2022/07/19 07:07:24;;;;;;;11.52;5.68;;;22.90;99.90;;;;;;6155983;23;20071;-80
2022/07/19 07:09:50;;;;;;;12.30;5.13;;;23.10;99.90;;;;;;6154425;23;20441;-81
2022/07/19 07:12:15;;;;;;;10.77;5.13;;;23.20;99.90;;;;;;6129057;23;20028;-81
2022/07/19 07:14:41;;;;;;;11.98;5.00;;;23.40;99.90;;;;;;6128890;23;20433;-81
2022/07/19 07:17:07;;;;;;;14.10;5.15;;;23.60;99.90;;;;;;6127770;23;20092;-81
2022/07/19 07:19:32;;;;;;;10.95;4.75;;;23.80;99.90;;;;;;6128583;23;20412;-81
2022/07/19 07:22:00;;;;;;;11.82;5.40;;;23.90;99.90;;;;;;6154805;23;20326;-81
2022/07/19 07:24:26;;;;;;;12.00;4.82;;;24.00;99.90;;;;;;6154999;23;20022;-81
2022/07/19 07:26:52;;;;;;;10.80;5.28;;;24.20;99.90;;;;;;6128098;23;20117;-81
2022/07/19 07:29:17;;;;;;;11.10;4.65;;;24.40;99.90;;;;;;6128624;23;20017;-84
2022/07/19 07:31:43;;;;;;;11.60;4.60;;;24.50;99.90;;;;;;6152381;23;20021;-83
2022/07/19 07:34:09;;;;;;;10.60;4.78;;;24.70;99.90;;;;;;6128522;23;20029;-82
2022/07/19 07:36:35;;;;;;;13.13;4.78;;;24.80;99.90;;;;;;6128950;23;20040;-82
2022/07/19 07:39:00;;;;;;;10.45;4.57;;;25.10;99.90;;;;;;6154039;23;20373;-82
2022/07/19 07:41:26;;;;;;;9.77;4.50;;;25.10;99.90;;;;;;6154795;23;20013;-83
2022/07/19 07:43:52;;;;;;;11.70;4.40;;;25.40;99.90;;;;;;6153847;23;20045;-84
2022/07/19 07:46:17;;;;;;;9.90;4.25;;;25.40;99.90;;;;;;6164365;23;20020;-84
2022/07/19 07:48:43;;;;;;;10.32;4.60;;;25.50;99.90;;;;;;6133908;23;20068;-85
2022/07/19 07:51:09;;;;;;;9.38;4.28;;;25.80;99.90;;;;;;6155669;23;20096;-84
2022/07/19 07:53:34;;;;;;;9.02;4.40;;;26.00;99.90;;;;;;6156630;23;20505;-88
2022/07/19 07:56:00;;;;;;;13.48;4.38;;;26.00;99.90;;;;;;6156326;23;20041;-84
2022/07/19 07:58:26;;;;;;;11.80;4.40;;;26.20;99.90;;;;;;6128774;23;20028;-84
2022/07/19 08:00:51;;;;;;;12.20;4.35;;;26.40;99.90;;;;;;6129870;23;20017;-84
2022/07/19 08:03:17;;;;;;;9.75;3.95;;;26.60;99.90;;;;;;6130007;23;20041;-84
2022/07/19 08:05:48;;;;;;;10.60;4.00;;;26.70;99.90;;;;;;6129292;23;20017;-84
2022/07/19 08:08:14;;;;;;;13.70;4.43;;;26.80;99.90;;;;;;6156574;23;20037;-84
2022/07/19 08:10:40;;;;;;;13.68;4.10;;;27.00;99.90;;;;;;6156721;23;20101;-84
2022/07/19 08:13:06;;;;;;;10.95;4.25;;;27.10;99.90;;;;;;6128776;23;20060;-83
2022/07/19 08:15:31;;;;;;;10.15;4.05;;;27.30;99.90;;;;;;6156321;23;20316;-83
2022/07/19 08:17:57;;;;;;;9.57;3.95;;;27.50;99.90;;;;;;6156389;23;20018;-84
2022/07/19 08:20:23;;;;;;;11.88;4.00;;;27.60;99.90;;;;;;6155727;23;20017;-83
2022/07/19 08:22:48;;;;;;;9.45;3.70;;;27.80;99.90;;;;;;6129825;23;20088;-81
2022/07/19 08:25:16;;;;;;;9.95;3.95;;;27.90;99.90;;;;;;6130007;23;20381;-81
2022/07/19 08:27:43;;;;;;;8.82;3.70;;;28.10;99.90;;;;;;6155393;23;20501;-81
2022/07/19 08:30:09;;;;;;;10.25;3.70;;;28.20;99.90;;;;;;6155843;23;20307;-81
2022/07/19 08:32:36;;;;;;;11.63;4.28;;;28.40;99.90;;;;;;6129894;23;20017;-81
2022/07/19 08:35:03;;;;;;;9.98;3.75;;;28.50;99.90;;;;;;6128805;23;20342;-81
2022/07/19 08:37:28;;;;;;;9.18;3.85;;;28.60;99.20;;;;;;6129818;23;20018;-81
2022/07/19 08:39:54;;;;;;;9.82;3.60;;;28.80;99.00;;;;;;6129072;23;20390;-81
2022/07/19 08:42:20;;;;;;;9.95;3.70;;;28.90;98.40;;;;;;6104516;23;20100;-81
2022/07/19 08:44:53;;;;;;;13.48;3.67;;;28.90;98.30;;;;;;6155484;23;20045;-81
2022/07/19 08:47:21;;;;;;;10.48;3.80;;;29.00;96.80;;;;;;6128628;23;20029;-81
2022/07/19 08:49:47;;;;;;;10.05;3.47;;;29.10;97.50;;;;;;6129194;23;20072;-82
2022/07/19 08:52:13;;;;;;;10.00;4.10;;;29.20;97.80;;;;;;6153836;23;20022;-81
2022/07/19 08:54:39;;;;;;;10.45;3.97;;;29.30;97.60;;;;;;6128592;23;20009;-82
2022/07/19 08:59:50;;;;;;;8.43;3.80;;;29.60;97.90;;;;;;6129054;23;20454;-82
2022/07/19 09:02:16;;;;;;;11.25;3.60;;;29.70;97.50;;;;;;6128699;23;20017;-81
2022/07/19 09:04:42;;;;;;;9.82;3.83;;;29.90;96.90;;;;;;6156002;23;20456;-83
2022/07/19 09:07:07;;;;;;;10.88;3.58;;;30.00;96.40;;;;;;6129482;23;20097;-83
2022/07/19 09:09:36;;;;;;;8.65;3.50;;;30.20;96.40;;;;;;6128818;23;20041;-83
2022/07/19 09:12:03;;;;;;;9.75;3.67;;;30.30;96.00;;;;;;6129160;23;20021;-83
2022/07/19 09:14:31;;;;;;;10.18;3.50;;;30.30;94.80;;;;;;6128896;23;20017;-83
2022/07/19 09:17:06;;;;;;;11.55;3.53;;;30.40;94.50;;;;;;6128431;23;20100;-83
2022/07/19 09:19:37;;;;;;;8.88;3.40;;;30.50;94.10;;;;;;6129446;23;20022;-83
2022/07/19 09:22:11;;;;;;;9.73;3.80;;;30.60;94.10;;;;;;6157566;23;20017;-84
2022/07/19 09:24:42;;;;;;;9.52;3.53;;;30.70;93.80;;;;;;6136580;23;20048;-83
2022/07/19 09:27:11;;;;;;;10.20;3.28;;;30.80;93.40;;;;;;6155327;23;20028;-83
2022/07/19 09:29:39;;;;;;;10.00;3.33;;;30.90;93.40;;;;;;6154435;23;20065;-83
2022/07/19 09:32:12;;;;;;;9.27;3.38;;;31.10;92.70;;;;;;6128585;23;20025;-83
2022/07/19 09:34:42;;;;;;;10.93;3.50;;;31.30;92.50;;;;;;6161726;23;20021;-83
2022/07/19 09:37:08;;;;;;;8.63;3.35;;;31.40;91.80;;;;;;6158156;23;20013;-83
2022/07/19 09:39:33;;;;;;;9.07;3.30;;;31.50;91.70;;;;;;6155064;23;20112;-83
2022/07/19 09:42:24;;;;;;;9.68;3.00;;;31.60;91.70;;;;;;6128640;23;20021;-83
2022/07/19 09:45:13;;;;;;;9.45;3.10;;;31.80;90.30;;;;;;6127828;23;20021;-83
2022/07/19 09:48:02;;;;;;;9.15;3.08;;;32.00;89.90;;;;;;6155860;23;20096;-83
2022/07/19 09:50:28;;;;;;;8.52;3.30;;;32.10;90.10;;;;;;6128132;23;20025;-82
2022/07/19 09:53:10;;;;;;;7.32;2.95;;;32.20;90.20;;;;;;6128560;23;20021;-82
2022/07/19 09:55:36;;;;;;;8.40;3.10;;;32.40;87.90;;;;;;6129126;23;20010;-83
2022/07/19 09:58:02;;;;;;;8.13;3.00;;;32.50;87.50;;;;;;6172862;23;20001;-82
2022/07/19 10:00:28;;;;;;;8.75;3.25;;;32.60;88.00;;;;;;6153684;23;20469;-83
2022/07/19 10:03:00;;;;;;;8.43;3.17;;;32.60;85.90;;;;;;6156397;23;20026;-82
2022/07/19 10:05:27;;;;;;;9.32;3.15;;;32.70;85.40;;;;;;6130193;23;20018;-83
2022/07/19 10:07:54;;;;;;;9.20;3.40;;;32.80;84.70;;;;;;6127953;23;20018;-82
2022/07/19 10:10:21;;;;;;;10.35;3.38;;;32.80;84.60;;;;;;6129418;23;20041;-83
2022/07/19 10:12:48;;;;;;;8.15;3.38;;;33.00;83.80;;;;;;6151530;23;20028;-82
2022/07/19 10:15:16;;;;;;;9.00;3.17;;;33.20;83.90;;;;;;6153851;23;20025;-82
2022/07/19 10:18:04;;;;;;;10.15;3.28;;;33.40;84.30;;;;;;6127166;23;20017;-82
2022/07/19 10:20:30;;;;;;;8.57;3.20;;;33.50;82.60;;;;;;6153759;23;20337;-82
2022/07/19 10:23:01;;;;;;;9.23;3.53;;;33.60;83.30;;;;;;6127704;23;20446;-82
2022/07/19 10:25:40;;;;;;;9.90;3.20;;;33.80;82.70;;;;;;6153930;23;20045;-82
2022/07/19 10:28:31;;;;;;;7.97;3.10;;;33.80;81.50;;;;;;6154595;23;20022;-82
2022/07/19 10:30:57;;;;;;;10.63;3.40;;;33.90;79.90;;;;;;6154652;23;20453;-83
2022/07/19 10:33:32;;;;;;;9.23;3.30;;;34.00;80.30;;;;;;6154544;23;20013;-83
2022/07/19 10:36:30;;;;;;;8.30;3.05;;;34.20;79.30;;;;;;6155133;23;20010;-84
2022/07/19 10:39:21;;;;;;;8.25;2.85;;;34.30;80.30;;;;;;6128473;23;20021;-83
2022/07/19 10:42:06;;;;;;;10.25;3.10;;;34.50;79.30;;;;;;6127752;23;20018;-84
2022/07/19 10:44:32;;;;;;;9.45;2.90;;;34.60;75.30;;;;;;6128799;23;20025;-83
2022/07/19 10:46:58;;;;;;;9.18;3.00;;;34.70;74.60;;;;;;6127895;23;20044;-84
2022/07/19 10:49:46;;;;;;;8.52;3.00;;;34.70;73.80;;;;;;6128899;23;20050;-84
2022/07/19 10:52:27;;;;;;;7.63;2.88;;;34.80;74.10;;;;;;6128985;23;20342;-82
2022/07/19 10:55:22;;;;;;;9.55;3.10;;;34.80;71.30;;;;;;6154345;23;20021;-81
2022/07/19 10:57:53;;;;;;;9.45;3.00;;;34.90;72.80;;;;;;6154714;23;20025;-82
2022/07/19 11:00:21;;;;;;;8.35;3.30;;;34.90;69.70;;;;;;6128907;23;20013;-82
2022/07/19 11:02:49;;;;;;;8.38;3.08;;;35.00;70.10;;;;;;6129884;23;20733;-81
2022/07/19 11:05:29;;;;;;;8.25;3.05;;;35.10;69.70;;;;;;6155427;23;20022;-83
2022/07/19 11:07:56;;;;;;;8.82;2.80;;;35.10;70.80;;;;;;6127391;23;20465;-81
2022/07/19 11:10:31;;;;;;;8.93;2.90;;;35.10;69.90;;;;;;6128824;23;20016;-81
2022/07/19 11:12:58;;;;;;;7.70;2.80;;;35.30;70.40;;;;;;6128387;23;20013;-81
2022/07/19 11:15:27;;;;;;;9.60;3.03;;;35.50;71.00;;;;;;6154097;23;20017;-82
2022/07/19 11:17:54;;;;;;;9.65;3.10;;;35.60;69.00;;;;;;6128248;23;20017;-82
2022/07/19 11:20:23;;;;;;;9.52;2.53;;;35.70;69.20;;;;;;6129627;23;20014;-84
2022/07/19 11:22:49;;;;;;;10.50;2.72;;;35.90;68.80;;;;;;6129408;23;20013;-81
2022/07/19 11:25:22;;;;;;;9.68;2.80;;;36.10;67.80;;;;;;6157079;23;20064;-81
2022/07/19 11:27:48;;;;;;;8.63;2.60;;;36.20;65.90;;;;;;6130297;23;20022;-81
2022/07/19 11:30:14;;;;;;;9.32;3.05;;;36.30;66.20;;;;;;6127760;23;20018;-82
2022/07/19 11:33:02;;;;;;;8.30;2.80;;;36.30;66.00;;;;;;6152781;23;20024;-82
2022/07/19 11:35:51;;;;;;;10.48;2.70;;;36.40;66.20;;;;;;6130798;23;20021;-79
2022/07/19 11:38:17;;;;;;;8.52;2.50;;;36.50;64.40;;;;;;6130049;23;20033;-83
2022/07/19 11:41:01;;;;;;;8.85;2.67;;;36.40;64.90;;;;;;6130261;23;20017;-82
2022/07/19 11:43:26;;;;;;;7.60;2.47;;;36.40;63.90;;;;;;6129296;23;20104;-83
2022/07/19 11:45:52;;;;;;;8.20;2.50;;;36.40;64.10;;;;;;6130091;23;20049;-85
2022/07/19 11:48:31;;;;;;;8.35;2.70;;;36.50;64.30;;;;;;6130389;23;20048;-83
2022/07/19 11:51:04;;;;;;;8.35;2.50;;;36.50;64.30;;;;;;6128784;23;20028;-82
2022/07/19 11:53:30;;;;;;;7.28;2.30;;;36.60;63.60;;;;;;6155925;23;20498;-81
2022/07/19 11:56:16;;;;;;;7.95;2.53;;;36.60;63.30;;;;;;6129194;23;20013;-82
2022/07/19 11:58:43;;;;;;;7.63;2.30;;;36.80;63.50;;;;;;6155045;23;20013;-82
2022/07/19 12:01:33;;;;;;;7.82;2.55;;;36.80;62.00;;;;;;6129944;23;20021;-82
2022/07/19 12:04:06;;;;;;;8.40;2.70;;;36.80;61.90;;;;;;6128702;23;20100;-82
2022/07/19 12:06:52;;;;;;;6.70;2.50;;;36.90;61.40;;;;;;6130124;23;20152;-82
2022/07/19 12:09:47;;;;;;;7.35;2.50;;;37.10;62.20;;;;;;6156284;23;20453;-82
2022/07/19 12:12:17;;;;;;;9.18;2.58;;;37.30;60.00;;;;;;6129287;23;20049;-82
2022/07/19 12:15:05;;;;;;;9.13;2.70;;;37.40;61.20;;;;;;6129961;23;20439;-82
2022/07/19 12:17:31;;;;;;;8.13;2.80;;;37.40;59.10;;;;;;6130309;23;20033;-82
2022/07/19 12:20:08;;;;;;;7.38;2.45;;;37.40;59.40;;;;;;6128630;23;20442;-82
2022/07/19 12:22:37;;;;;;;8.32;2.50;;;37.40;59.90;;;;;;6130607;23;20089;-82
2022/07/19 12:25:05;;;;;;;7.10;2.70;;;37.40;60.10;;;;;;6128471;23;20084;-82
2022/07/19 12:27:32;;;;;;;10.00;2.58;;;37.50;60.00;;;;;;6144170;23;20021;-82
2022/07/19 12:29:58;;;;;;;8.18;2.53;;;37.60;59.40;;;;;;6127938;23;20096;-82
2022/07/19 12:32:37;;;;;;;7.63;2.55;;;37.50;60.20;;;;;;6128611;23;20017;-82
2022/07/19 12:35:11;;;;;;;8.48;2.47;;;37.60;60.30;;;;;;6129450;23;20470;-82
2022/07/19 12:37:41;;;;;;;9.90;2.83;;;37.80;61.00;;;;;;6129900;23;20473;-82
2022/07/19 12:40:09;;;;;;;7.90;2.72;;;38.00;60.30;;;;;;6132961;23;20023;-82
2022/07/19 12:42:43;;;;;;;6.70;2.50;;;38.10;59.40;;;;;;6100861;23;20437;-81
2022/07/19 12:45:13;;;;;;;8.57;2.60;;;38.20;58.60;;;;;;6108745;23;20022;-81
2022/07/19 12:47:39;;;;;;;8.05;2.63;;;38.30;58.80;;;;;;6126207;23;20060;-81
2022/07/19 12:50:07;;;;;;;7.10;2.47;;;38.30;58.60;;;;;;6100324;23;20338;-80